Chetumal International Airport


Codes: MMCM/CTM
Name: Chetumal International Airport
City: Chetumal
Country: Mexico
Elevation: 39 ft.
Website:
Wikipedia:

Photos at Chetumal International Airport


   Photos courtesy of SpottingLog. You can add your own sightings and photos by signing up for a free trial today.



No photos found.

Weather at Chetumal International Airport


Time (UTC)DescriptionTempratureWindCloud coverageVisibilityPressureHumidity
16-Jun-2024 12:00Moderate Rain27°C11 mph, 100%10000m1007hPa89%
16-Jun-2024 15:00Moderate Rain28°C16 mph, E99%10000m1008hPa87%
16-Jun-2024 18:00Moderate Rain29°C13 mph, SE99%4291m1007hPa86%
16-Jun-2024 21:00Moderate Rain28°C16 mph, E100%10000m1006hPa88%
17-Jun-2024 00:00Moderate Rain27°C16 mph, E100%10000m1006hPa89%
17-Jun-2024 03:00Moderate Rain27°C16 mph, E100%4155m1006hPa90%
17-Jun-2024 06:00Heavy Intensity Rain26°C16 mph, E100%3256m1005hPa92%
17-Jun-2024 09:00Heavy Intensity Rain26°C13 mph, SE100%2324m1003hPa93%
17-Jun-2024 12:00Heavy Intensity Rain27°C9 mph, SE100%10000m1004hPa92%
17-Jun-2024 15:00Moderate Rain27°C11 mph, SE100%4520m1005hPa90%
17-Jun-2024 18:00Moderate Rain27°C11 mph, SE100%3456m1004hPa89%
17-Jun-2024 21:00Moderate Rain28°C9 mph, SE98%4332m1003hPa86%
18-Jun-2024 00:00Moderate Rain27°C11 mph, SE99%4769m1004hPa87%
18-Jun-2024 03:00Moderate Rain26°C9 mph, SE100%8536m1006hPa88%
18-Jun-2024 06:00Moderate Rain25°C9 mph, S100%8266m1006hPa92%
18-Jun-2024 09:00Light Rain25°C9 mph, SE100%10000m1005hPa91%
18-Jun-2024 12:00Light Rain25°C7 mph, S100%10000m1005hPa90%
18-Jun-2024 15:00Light Rain28°C7 mph, SE95%10000m1006hPa83%
18-Jun-2024 18:00Light Rain30°C9 mph, SE98%10000m1005hPa72%
18-Jun-2024 21:00Moderate Rain29°C7 mph, SE73%7961m1004hPa76%
19-Jun-2024 00:00Light Rain27°C7 mph, E86%10000m1005hPa83%
19-Jun-2024 03:00Broken Clouds26°C7 mph, E71%10000m1006hPa85%
19-Jun-2024 06:00Moderate Rain26°C7 mph, SE84%5720m1006hPa88%
19-Jun-2024 09:00Light Rain27°C7 mph, SE100%10000m1005hPa85%
19-Jun-2024 12:00Light Rain27°C7 mph, SE93%10000m1005hPa86%
19-Jun-2024 15:00Moderate Rain28°C7 mph, SE100%7083m1006hPa83%
19-Jun-2024 18:00Light Rain27°C4 mph, SE100%10000m1005hPa86%
19-Jun-2024 21:00Light Rain29°C11 mph, SE100%10000m1004hPa75%
20-Jun-2024 00:00Light Rain28°C13 mph, E100%10000m1004hPa84%
20-Jun-2024 03:00Light Rain27°C16 mph, E100%10000m1006hPa84%
20-Jun-2024 06:00Moderate Rain27°C16 mph, E100%10000m1006hPa88%
20-Jun-2024 09:00Moderate Rain27°C18 mph, E100%10000m1004hPa87%
20-Jun-2024 12:00Moderate Rain27°C18 mph, E100%10000m1006hPa86%
20-Jun-2024 15:00Moderate Rain28°C18 mph, E100%10000m1007hPa84%
20-Jun-2024 18:00Moderate Rain28°C18 mph, SE100%10000m1007hPa87%
20-Jun-2024 21:00Moderate Rain28°C18 mph, E100%10000m1006hPa87%
21-Jun-2024 00:00Light Rain27°C18 mph, E100%10000m1007hPa88%
21-Jun-2024 03:00Light Rain28°C18 mph, E100%10000m1008hPa85%
21-Jun-2024 06:00Light Rain28°C18 mph, E100%10000m1007hPa83%
21-Jun-2024 09:00Moderate Rain26°C18 mph, E100%10000m1006hPa89%